createdAt,value
2018-10-02T00:00:35.551Z,38.63
2018-10-02T00:03:01.525Z,38.40
2018-10-02T00:05:27.502Z,39.04
2018-10-02T00:07:53.432Z,39.44
2018-10-02T00:10:19.364Z,38.90
2018-10-02T00:12:45.313Z,39.67
2018-10-02T00:15:11.247Z,38.63
2018-10-02T00:17:37.201Z,38.68
2018-10-02T00:20:03.117Z,39.08
2018-10-02T00:22:29.060Z,38.74
2018-10-02T00:24:55.010Z,38.50
2018-10-02T00:27:20.930Z,38.87
2018-10-02T00:29:46.873Z,38.66
2018-10-02T00:32:12.997Z,39.23
2018-10-02T00:34:38.777Z,39.77
2018-10-02T00:37:04.719Z,39.41
2018-10-02T00:39:30.653Z,38.63
2018-10-02T00:41:56.614Z,38.31
2018-10-02T00:44:22.556Z,38.95
2018-10-02T00:46:48.493Z,38.98
2018-10-02T00:49:14.407Z,39.24
2018-10-02T00:51:40.386Z,39.62
2018-10-02T00:54:06.315Z,39.43
2018-10-02T00:56:32.288Z,39.20
2018-10-02T00:58:58.232Z,39.22
2018-10-02T01:01:24.179Z,38.56
2018-10-02T01:03:50.111Z,38.42
2018-10-02T01:06:16.097Z,38.29
2018-10-02T01:08:42.044Z,38.60
2018-10-02T01:11:08.010Z,38.70
2018-10-02T01:13:33.963Z,38.53
2018-10-02T01:15:59.946Z,38.58
2018-10-02T01:18:25.888Z,38.43
2018-10-02T01:20:51.804Z,38.93
2018-10-02T01:23:17.754Z,39.07
2018-10-02T01:25:43.696Z,38.97
2018-10-02T01:28:09.689Z,38.67
2018-10-02T01:30:35.647Z,39.13
2018-10-02T01:33:01.615Z,38.62
2018-10-02T01:35:27.557Z,38.50
2018-10-02T01:37:53.513Z,38.90
2018-10-02T01:40:19.450Z,38.94
2018-10-02T01:42:45.387Z,38.49
2018-10-02T01:45:11.335Z,38.81
2018-10-02T01:47:37.307Z,38.22
2018-10-02T01:50:03.265Z,38.21
2018-10-02T01:52:29.226Z,38.95
2018-10-02T01:54:55.162Z,38.88
2018-10-02T01:57:21.117Z,38.31
2018-10-02T01:59:47.064Z,38.03
2018-10-02T02:02:13.015Z,38.77
2018-10-02T02:04:38.966Z,38.39
2018-10-02T02:07:04.918Z,39.04
2018-10-02T02:09:30.856Z,38.80
2018-10-02T02:11:56.805Z,38.54
2018-10-02T02:14:22.751Z,38.71
2018-10-02T02:16:48.701Z,38.84
2018-10-02T02:19:14.627Z,38.30
2018-10-02T02:21:40.616Z,38.47
2018-10-02T02:24:06.568Z,38.31
2018-10-02T02:26:32.514Z,39.03
2018-10-02T02:28:58.435Z,38.67
2018-10-02T02:31:24.379Z,38.41
2018-10-02T02:33:50.307Z,38.30
2018-10-02T02:36:16.249Z,38.30
2018-10-02T02:38:42.225Z,38.32
2018-10-02T02:41:08.195Z,38.74
2018-10-02T02:43:34.180Z,38.76
2018-10-02T02:46:00.124Z,39.02
2018-10-02T02:48:26.069Z,39.82
2018-10-02T02:50:52.021Z,39.58
2018-10-02T02:53:18.015Z,39.39
2018-10-02T02:55:43.982Z,40.00
2018-10-02T03:00:42.338Z,40.03
2018-10-02T03:03:08.314Z,40.19
2018-10-02T03:05:34.252Z,39.58
2018-10-02T03:08:00.224Z,40.39
2018-10-02T03:10:26.189Z,40.32
2018-10-02T03:12:52.176Z,40.35
2018-10-02T03:15:18.129Z,40.44
2018-10-02T03:17:44.116Z,40.44
2018-10-02T03:20:10.061Z,40.46
2018-10-02T03:22:36.008Z,40.99
2018-10-02T03:25:01.947Z,41.14
2018-10-02T03:27:27.910Z,40.94
2018-10-02T03:29:53.867Z,40.49
2018-10-02T03:32:19.823Z,40.81
2018-10-02T03:34:45.748Z,40.28
2018-10-02T03:37:11.692Z,41.04
2018-10-02T03:39:37.663Z,40.67
2018-10-02T03:42:03.640Z,40.43
2018-10-02T03:44:29.570Z,40.96
2018-10-02T03:46:55.531Z,40.74
2018-10-02T03:49:21.489Z,40.48
2018-10-02T03:51:47.448Z,40.35
2018-10-02T03:54:13.404Z,41.03
2018-10-02T03:56:39.346Z,41.30
2018-10-02T03:59:05.291Z,41.41
2018-10-02T04:01:31.245Z,41.26
2018-10-02T04:03:57.193Z,40.62
2018-10-02T04:06:23.136Z,41.28
2018-10-02T04:08:49.076Z,40.50
2018-10-02T04:11:15.032Z,41.04
2018-10-02T04:13:41.005Z,40.59
2018-10-02T04:16:06.953Z,40.55
2018-10-02T04:18:32.892Z,41.34
2018-10-02T04:20:58.842Z,41.31
2018-10-02T04:23:24.805Z,41.25
2018-10-02T04:25:50.753Z,41.60
2018-10-02T04:28:16.776Z,41.25
2018-10-02T04:30:42.699Z,41.40
2018-10-02T04:33:08.650Z,41.10
2018-10-02T04:35:34.610Z,41.80
2018-10-02T04:38:00.552Z,41.44
2018-10-02T04:40:26.488Z,41.33
2018-10-02T04:42:52.423Z,41.88
2018-10-02T04:45:18.363Z,41.63
2018-10-02T04:47:44.317Z,41.66
2018-10-02T04:50:10.267Z,41.17
2018-10-02T04:52:36.228Z,41.38
2018-10-02T04:55:02.233Z,41.25
2018-10-02T04:57:28.147Z,41.21
2018-10-02T04:59:54.082Z,41.03
2018-10-02T05:02:20.129Z,41.54
2018-10-02T05:04:46.090Z,41.11
2018-10-02T05:07:12.043Z,40.98
2018-10-02T05:09:38.118Z,40.97
2018-10-02T05:12:04.068Z,41.23
2018-10-02T05:14:30.036Z,40.83
2018-10-02T05:16:55.994Z,41.10
2018-10-02T05:19:21.947Z,41.11
2018-10-02T05:21:47.926Z,41.59
2018-10-02T05:24:13.925Z,41.11
2018-10-02T05:26:39.832Z,41.48
2018-10-02T05:29:05.776Z,41.05
2018-10-02T05:31:31.757Z,41.37
2018-10-02T05:33:57.697Z,40.79
2018-10-02T05:36:23.650Z,41.38
2018-10-02T05:38:49.622Z,41.32
2018-10-02T05:41:15.592Z,41.27
2018-10-02T05:43:41.564Z,40.84
2018-10-02T05:46:07.499Z,40.66
2018-10-02T05:48:33.463Z,41.24
2018-10-02T05:50:59.433Z,41.67
2018-10-02T05:53:25.373Z,40.98
2018-10-02T05:55:51.328Z,41.39
2018-10-02T05:58:17.344Z,41.43
2018-10-02T06:00:43.293Z,41.35
2018-10-02T06:03:09.299Z,40.66
2018-10-02T06:05:35.271Z,41.10
2018-10-02T06:08:01.227Z,41.18
2018-10-02T06:10:27.177Z,41.15
2018-10-02T06:12:53.128Z,40.43
2018-10-02T06:15:19.100Z,40.55
2018-10-02T06:17:45.091Z,40.43
2018-10-02T06:20:11.046Z,39.86
2018-10-02T06:22:36.990Z,40.00
2018-10-02T06:25:02.974Z,40.46
2018-10-02T06:27:28.951Z,40.47
2018-10-02T06:29:54.892Z,40.02
2018-10-02T06:32:20.859Z,40.51
2018-10-02T06:34:46.827Z,40.14
2018-10-02T06:37:12.801Z,40.46
2018-10-02T06:39:38.775Z,40.28
2018-10-02T06:42:04.766Z,40.65
2018-10-02T06:44:30.770Z,40.64
2018-10-02T06:46:56.695Z,40.41
2018-10-02T06:49:22.637Z,39.77
2018-10-02T06:51:48.624Z,39.81
2018-10-02T06:54:14.570Z,39.63
2018-10-02T06:56:40.570Z,39.43
2018-10-02T06:59:06.512Z,40.19
2018-10-02T07:01:32.473Z,39.51
2018-10-02T07:03:58.422Z,39.77
2018-10-02T07:06:24.389Z,39.85
2018-10-02T07:08:50.371Z,39.96
2018-10-02T07:11:16.293Z,40.24
2018-10-02T07:13:42.632Z,39.69
2018-10-02T07:16:08.581Z,39.53
2018-10-02T07:18:34.547Z,39.50
2018-10-02T07:21:00.607Z,38.70
2018-10-02T07:23:26.516Z,38.54
2018-10-02T07:25:52.467Z,38.41
2018-10-02T07:28:18.502Z,37.94
2018-10-02T07:30:44.471Z,37.41
2018-10-02T07:33:10.346Z,36.80
2018-10-02T07:35:36.299Z,37.42
2018-10-02T07:38:02.248Z,36.39
2018-10-02T07:40:28.203Z,35.62
2018-10-02T07:42:54.175Z,35.49
2018-10-02T07:45:20.140Z,34.49
2018-10-02T07:47:46.175Z,34.44
2018-10-02T07:50:12.104Z,34.49
2018-10-02T07:52:38.063Z,34.79
2018-10-02T07:55:04.017Z,34.72
2018-10-02T07:57:30.031Z,33.86
2018-10-02T08:02:28.447Z,33.69
2018-10-02T08:04:54.456Z,34.10
2018-10-02T08:07:20.379Z,34.77
2018-10-02T08:09:46.322Z,34.10
2018-10-02T08:12:12.420Z,33.82
2018-10-02T08:14:38.354Z,34.46
2018-10-02T08:17:04.252Z,34.93
2018-10-02T08:19:30.195Z,34.42
2018-10-02T08:21:56.163Z,34.07
2018-10-02T08:24:22.119Z,34.22
2018-10-02T08:26:48.091Z,34.00
2018-10-02T08:29:14.035Z,33.59
2018-10-02T08:31:39.999Z,34.22
2018-10-02T08:34:05.956Z,34.24
2018-10-02T08:36:31.946Z,33.37
2018-10-02T08:38:57.886Z,32.89
2018-10-02T08:41:23.833Z,32.02
2018-10-02T08:43:49.865Z,33.43
2018-10-02T08:46:15.744Z,33.58
2018-10-02T08:48:41.713Z,32.05
2018-10-02T08:51:07.680Z,32.10
2018-10-02T08:53:33.679Z,31.95
2018-10-02T08:55:59.620Z,34.52
2018-10-02T08:58:25.602Z,35.19
2018-10-02T09:00:51.636Z,34.29
2018-10-02T09:03:17.652Z,34.35
2018-10-02T09:05:43.627Z,33.60
2018-10-02T09:08:09.566Z,32.94
2018-10-02T09:10:35.556Z,32.71
2018-10-02T09:13:01.598Z,32.72
2018-10-02T09:15:27.582Z,33.03
2018-10-02T09:17:53.528Z,32.02
2018-10-02T09:20:19.477Z,32.03
2018-10-02T09:22:45.496Z,33.01
2018-10-02T09:25:11.526Z,32.62
2018-10-02T09:27:37.559Z,32.12
2018-10-02T09:30:03.534Z,30.92
2018-10-02T09:32:29.487Z,30.31
2018-10-02T09:34:55.430Z,29.58
2018-10-02T09:37:21.438Z,30.12
2018-10-02T09:39:47.389Z,29.14
2018-10-02T09:42:13.334Z,29.86
2018-10-02T09:44:39.274Z,29.66
2018-10-02T09:47:05.353Z,30.02
2018-10-02T09:49:31.340Z,29.68
2018-10-02T09:51:57.296Z,29.37
2018-10-02T09:54:23.281Z,30.08
2018-10-02T09:56:49.251Z,29.64
2018-10-02T09:59:15.233Z,29.19
2018-10-02T10:01:41.198Z,28.73
2018-10-02T10:04:07.207Z,29.48
2018-10-02T10:06:33.179Z,30.30
2018-10-02T10:08:59.167Z,29.81
2018-10-02T10:11:25.149Z,29.62
2018-10-02T10:13:51.120Z,28.98
2018-10-02T10:16:17.098Z,29.22
2018-10-02T10:18:43.091Z,28.99
2018-10-02T10:21:09.081Z,29.71
2018-10-02T10:23:35.048Z,29.02
2018-10-02T10:26:00.982Z,29.23
2018-10-02T10:28:26.957Z,29.27
2018-10-02T10:30:52.968Z,28.22
2018-10-02T10:33:19.009Z,28.90
2018-10-02T10:35:45.028Z,29.35
2018-10-02T10:38:10.982Z,29.16
2018-10-02T10:40:36.985Z,28.82
2018-10-02T10:43:02.901Z,28.29
2018-10-02T10:45:28.844Z,27.66
2018-10-02T10:47:54.825Z,28.06
2018-10-02T10:50:20.817Z,27.92
2018-10-02T10:52:46.826Z,27.41
2018-10-02T10:55:12.774Z,27.89
2018-10-02T10:57:38.804Z,28.61
2018-10-02T11:00:04.788Z,27.79
2018-10-02T11:02:30.735Z,28.20
2018-10-02T11:04:56.789Z,28.20
2018-10-02T11:07:22.715Z,28.04
2018-10-02T11:09:48.813Z,28.91
2018-10-02T11:12:14.790Z,28.68
2018-10-02T11:14:40.736Z,29.09
2018-10-02T11:17:07.201Z,28.96
2018-10-02T11:19:33.171Z,28.08
2018-10-02T11:21:59.143Z,28.09
2018-10-02T11:24:25.132Z,28.80
2018-10-02T11:26:51.092Z,27.89
2018-10-02T11:29:17.052Z,28.78
2018-10-02T11:31:43.019Z,28.89
2018-10-02T11:34:08.980Z,28.62
2018-10-02T11:36:34.940Z,28.35
2018-10-02T11:39:00.883Z,28.80
2018-10-02T11:41:26.853Z,28.71
2018-10-02T11:43:52.903Z,28.42
2018-10-02T11:46:18.816Z,28.80
2018-10-02T11:48:44.786Z,29.40
2018-10-02T11:51:10.784Z,28.98
2018-10-02T11:53:36.751Z,29.57
2018-10-02T11:56:02.767Z,28.56
2018-10-02T11:58:28.753Z,29.15
2018-10-02T12:00:54.749Z,29.01
2018-10-02T12:03:20.727Z,29.94
2018-10-02T12:05:46.737Z,29.79
2018-10-02T12:08:12.695Z,28.77
2018-10-02T12:10:38.697Z,29.69
2018-10-02T12:13:04.734Z,29.22
2018-10-02T12:15:30.713Z,29.63
2018-10-02T12:17:56.665Z,29.71
2018-10-02T12:20:22.621Z,31.12
2018-10-02T12:22:48.585Z,30.87
2018-10-02T12:25:14.535Z,30.10
2018-10-02T12:27:40.506Z,31.52
2018-10-02T12:30:06.529Z,32.19
2018-10-02T12:32:32.483Z,32.34
2018-10-02T12:34:58.410Z,32.91
2018-10-02T12:37:24.383Z,32.82
2018-10-02T12:39:50.351Z,32.74
2018-10-02T12:42:16.315Z,32.09
2018-10-02T12:44:42.267Z,32.59
2018-10-02T12:47:08.332Z,32.13
2018-10-02T12:49:34.226Z,33.05
2018-10-02T12:52:00.165Z,33.48
2018-10-02T12:54:26.147Z,32.24
2018-10-02T12:56:52.115Z,31.87
2018-10-02T12:59:18.131Z,31.67
2018-10-02T13:01:44.060Z,31.71
2018-10-02T13:04:09.998Z,32.01
2018-10-02T13:06:35.972Z,31.89
2018-10-02T13:09:01.934Z,32.55
2018-10-02T13:11:27.918Z,32.33
2018-10-02T13:13:53.872Z,31.55
2018-10-02T13:16:19.848Z,32.93
2018-10-02T13:18:45.813Z,32.10
2018-10-02T13:21:11.782Z,31.69
2018-10-02T13:23:37.753Z,31.47
2018-10-02T13:26:03.729Z,32.14
2018-10-02T13:28:29.697Z,31.46
2018-10-02T13:30:55.677Z,31.71
2018-10-02T13:33:21.656Z,32.07
2018-10-02T13:35:47.615Z,31.98
2018-10-02T13:38:13.574Z,31.79
2018-10-02T13:40:39.561Z,32.70
2018-10-02T13:43:05.505Z,31.72
2018-10-02T13:45:31.465Z,32.72
2018-10-02T13:47:57.434Z,33.12
2018-10-02T13:50:23.445Z,32.14
2018-10-02T13:52:49.411Z,32.89
2018-10-02T13:55:15.393Z,31.93
2018-10-02T13:57:41.373Z,32.07
2018-10-02T14:00:07.342Z,32.66
2018-10-02T14:02:33.340Z,32.26
2018-10-02T14:04:59.299Z,32.39
2018-10-02T14:07:25.280Z,32.06
2018-10-02T14:09:51.220Z,32.82
2018-10-02T14:12:17.197Z,32.60
2018-10-02T14:14:43.141Z,32.50
2018-10-02T14:17:09.105Z,32.70
2018-10-02T14:19:35.068Z,33.01
2018-10-02T14:22:01.026Z,33.34
2018-10-02T14:24:27.734Z,32.85
2018-10-02T14:26:53.729Z,32.72
2018-10-02T14:29:19.742Z,33.34
2018-10-02T14:31:45.664Z,33.74
2018-10-02T14:34:11.600Z,33.51
2018-10-02T14:36:37.574Z,34.02
2018-10-02T14:39:03.544Z,33.90
2018-10-02T14:41:29.527Z,33.04
2018-10-02T14:43:55.485Z,33.55
2018-10-02T14:46:21.432Z,34.13
2018-10-02T14:48:47.399Z,34.09
2018-10-02T14:51:13.340Z,33.46
2018-10-02T14:53:39.289Z,34.13
2018-10-02T14:56:05.252Z,34.53
2018-10-02T14:58:31.241Z,34.38
2018-10-02T15:00:57.192Z,34.78
2018-10-02T15:03:23.156Z,33.96
2018-10-02T15:05:49.124Z,33.94
2018-10-02T15:08:15.112Z,34.37
2018-10-02T15:10:41.062Z,34.14
2018-10-02T15:13:07.009Z,34.61
2018-10-02T15:15:32.948Z,34.26
2018-10-02T15:17:58.989Z,34.71
2018-10-02T15:20:24.879Z,35.10
2018-10-02T15:22:50.851Z,35.18
2018-10-02T15:25:16.818Z,35.04
2018-10-02T15:27:42.797Z,34.89
2018-10-02T15:30:08.733Z,34.72
2018-10-02T15:32:34.704Z,34.93
2018-10-02T15:35:00.664Z,35.25
2018-10-02T15:37:26.702Z,35.18
2018-10-02T15:39:52.601Z,35.11
2018-10-02T15:42:18.573Z,35.03
2018-10-02T15:44:44.546Z,35.14
2018-10-02T15:47:10.473Z,35.72
2018-10-02T15:49:36.414Z,35.72
2018-10-02T15:52:02.380Z,35.18
2018-10-02T15:54:28.345Z,35.47
2018-10-02T15:56:54.347Z,34.86
2018-10-02T15:59:20.333Z,35.73
2018-10-02T16:01:46.296Z,35.06
2018-10-02T16:04:12.254Z,35.57
2018-10-02T16:06:38.181Z,36.10
2018-10-02T16:09:04.162Z,36.01
2018-10-02T16:11:30.178Z,35.91
2018-10-02T16:13:56.088Z,35.27
2018-10-02T16:16:22.045Z,35.57
2018-10-02T16:18:47.993Z,35.50
2018-10-02T16:21:13.955Z,35.95
2018-10-02T16:23:39.959Z,35.43
2018-10-02T16:26:05.896Z,36.21
2018-10-02T16:28:31.873Z,35.50
2018-10-02T16:30:57.820Z,35.86
2018-10-02T16:33:23.809Z,35.84
2018-10-02T16:35:49.763Z,36.03
2018-10-02T16:38:15.716Z,36.42
2018-10-02T16:40:41.708Z,35.71
2018-10-02T16:43:07.689Z,37.02
2018-10-02T16:45:33.644Z,36.38
2018-10-02T16:47:59.631Z,36.14
2018-10-02T16:50:25.626Z,36.59
2018-10-02T16:52:51.591Z,36.21
2018-10-02T16:55:17.580Z,36.18
2018-10-02T16:57:43.607Z,36.40
2018-10-02T17:00:09.553Z,36.95
2018-10-02T17:02:35.516Z,37.16
2018-10-02T17:05:01.497Z,37.05
2018-10-02T17:07:27.450Z,36.33
2018-10-02T17:09:53.378Z,36.40
2018-10-02T17:12:19.384Z,36.09
2018-10-02T17:14:45.416Z,36.20
2018-10-02T17:17:11.402Z,36.79
2018-10-02T17:19:37.427Z,36.75
2018-10-02T17:22:03.428Z,36.01
2018-10-02T17:24:29.419Z,36.51
2018-10-02T17:26:55.429Z,37.54
2018-10-02T17:29:21.427Z,37.88
2018-10-02T17:31:47.405Z,38.15
2018-10-02T17:34:13.421Z,38.56
2018-10-02T17:36:39.392Z,38.15
2018-10-02T17:39:05.353Z,37.74
2018-10-02T17:41:31.340Z,37.93
2018-10-02T17:43:57.307Z,37.81
2018-10-02T17:46:23.330Z,37.79
2018-10-02T17:48:49.423Z,38.53
2018-10-02T17:51:15.400Z,38.26
2018-10-02T17:53:41.397Z,39.09
2018-10-02T17:56:07.565Z,38.70
2018-10-02T17:58:33.579Z,38.73
2018-10-02T18:00:59.545Z,38.68
2018-10-02T18:03:25.621Z,39.80
2018-10-02T18:05:51.692Z,39.03
2018-10-02T18:08:17.670Z,38.96
2018-10-02T18:10:43.647Z,39.50
2018-10-02T18:13:09.600Z,39.33
2018-10-02T18:15:35.633Z,39.99
2018-10-02T18:18:01.583Z,39.95
2018-10-02T18:20:27.579Z,40.58
2018-10-02T18:22:53.551Z,40.17
2018-10-02T18:25:19.546Z,40.32
2018-10-02T18:27:45.512Z,40.09
2018-10-02T18:30:11.512Z,40.62
2018-10-02T18:32:37.507Z,40.66
2018-10-02T18:35:03.496Z,40.37
2018-10-02T18:37:29.486Z,40.43
2018-10-02T18:39:55.546Z,40.18
2018-10-02T18:42:21.509Z,40.75
2018-10-02T18:44:47.493Z,40.58
2018-10-02T18:47:13.495Z,39.87
2018-10-02T18:49:39.477Z,39.84
2018-10-02T18:52:05.493Z,39.87
2018-10-02T18:54:31.477Z,39.74
2018-10-02T18:56:57.446Z,41.27
2018-10-02T18:59:23.390Z,40.98
2018-10-02T19:01:49.369Z,41.03
2018-10-02T19:04:15.350Z,41.39
2018-10-02T19:06:41.388Z,41.44
2018-10-02T19:09:07.426Z,41.51
2018-10-02T19:11:33.437Z,42.30
2018-10-02T19:13:59.442Z,41.83
2018-10-02T19:16:25.438Z,42.32
2018-10-02T19:18:51.437Z,41.40
2018-10-02T19:21:17.481Z,41.39
2018-10-02T19:23:43.467Z,41.14
2018-10-02T19:26:09.476Z,42.70
2018-10-02T19:28:35.442Z,42.28
2018-10-02T19:31:01.462Z,41.50
2018-10-02T19:33:27.465Z,41.69
2018-10-02T19:35:53.500Z,41.89
2018-10-02T19:38:19.497Z,41.68
2018-10-02T19:40:45.589Z,41.22
2018-10-02T19:43:11.622Z,41.84
2018-10-02T19:45:37.644Z,41.32
2018-10-02T19:48:03.643Z,40.99
2018-10-02T19:50:29.627Z,40.92
2018-10-02T19:52:55.589Z,40.80
2018-10-02T19:55:21.591Z,40.76
2018-10-02T19:57:47.564Z,40.66
2018-10-02T20:00:13.510Z,40.73
2018-10-02T20:02:39.484Z,40.46
2018-10-02T20:05:05.482Z,40.64
2018-10-02T20:07:31.589Z,40.40
2018-10-02T20:09:57.445Z,39.90
2018-10-02T20:12:23.457Z,40.29
2018-10-02T20:14:49.478Z,39.60
2018-10-02T20:17:15.450Z,40.68
2018-10-02T20:19:41.435Z,40.59
2018-10-02T20:22:07.426Z,39.57
2018-10-02T20:24:33.377Z,40.40
2018-10-02T20:26:59.376Z,40.47
2018-10-02T20:29:25.371Z,40.60
2018-10-02T20:31:51.338Z,39.94
2018-10-02T20:34:17.343Z,40.08
2018-10-02T20:36:43.399Z,40.43
2018-10-02T20:39:09.403Z,40.06
2018-10-02T20:41:35.394Z,41.27
2018-10-02T20:44:01.394Z,40.72
2018-10-02T20:46:27.395Z,40.65
2018-10-02T20:48:53.377Z,40.14
2018-10-02T20:51:19.330Z,39.99
2018-10-02T20:53:45.349Z,39.90
2018-10-02T20:56:11.341Z,41.04
2018-10-02T20:58:37.321Z,42.59
2018-10-02T21:01:03.300Z,42.39
2018-10-02T21:03:29.261Z,41.22
2018-10-02T21:05:55.252Z,41.15
2018-10-02T21:08:21.209Z,40.84
2018-10-02T21:10:47.207Z,40.41
2018-10-02T21:13:13.213Z,41.08
2018-10-02T21:15:39.328Z,40.86
2018-10-02T21:18:05.200Z,40.03
2018-10-02T21:20:31.177Z,41.29
2018-10-02T21:22:57.141Z,41.52
2018-10-02T21:25:23.097Z,40.90
2018-10-02T21:27:49.089Z,40.89
2018-10-02T21:30:15.090Z,41.73
2018-10-02T21:32:41.070Z,41.70
2018-10-02T21:35:07.060Z,40.92
2018-10-02T21:37:33.008Z,41.27
2018-10-02T21:39:59.031Z,41.60
2018-10-02T21:42:24.939Z,41.37
2018-10-02T21:44:50.948Z,41.46
2018-10-02T21:47:16.969Z,41.73
2018-10-02T21:49:42.920Z,41.95
2018-10-02T21:52:08.920Z,42.19
2018-10-02T21:54:34.896Z,41.17
2018-10-02T21:57:00.874Z,41.50
2018-10-02T21:59:26.861Z,41.09
2018-10-02T22:01:52.868Z,40.88
2018-10-02T22:04:18.824Z,41.36
2018-10-02T22:06:44.848Z,41.54
2018-10-02T22:09:10.790Z,41.19
2018-10-02T22:11:36.747Z,41.74
2018-10-02T22:14:02.713Z,41.66
2018-10-02T22:16:28.673Z,40.97
2018-10-02T22:18:54.630Z,40.71
2018-10-02T22:21:20.592Z,40.93
2018-10-02T22:23:46.567Z,41.26
2018-10-02T22:26:12.555Z,40.71
2018-10-02T22:28:38.530Z,40.57
2018-10-02T22:31:04.481Z,40.95
2018-10-02T22:33:30.441Z,40.55
2018-10-02T22:35:56.401Z,41.05
2018-10-02T22:38:22.340Z,40.57
2018-10-02T22:40:48.304Z,40.73
2018-10-02T22:43:14.261Z,41.14
2018-10-02T22:45:40.205Z,42.11
2018-10-02T22:48:06.142Z,41.68
2018-10-02T22:50:32.156Z,41.22
2018-10-02T22:52:58.116Z,42.19
2018-10-02T22:55:24.065Z,43.03
2018-10-02T22:57:50.024Z,42.56
2018-10-02T23:00:15.993Z,42.02
2018-10-02T23:02:41.947Z,42.80
2018-10-02T23:05:07.896Z,41.47
2018-10-02T23:07:33.842Z,41.28
2018-10-02T23:09:59.774Z,41.80
2018-10-02T23:12:25.725Z,41.73
2018-10-02T23:14:51.675Z,42.68
2018-10-02T23:17:17.621Z,42.31
2018-10-02T23:19:43.552Z,42.97
2018-10-02T23:22:09.496Z,43.14
2018-10-02T23:24:35.458Z,42.91
2018-10-02T23:27:01.413Z,43.25
2018-10-02T23:29:27.396Z,42.74
2018-10-02T23:31:53.352Z,43.34
2018-10-02T23:34:19.296Z,41.58
2018-10-02T23:36:45.240Z,42.50
2018-10-02T23:39:11.201Z,42.34
2018-10-02T23:41:37.155Z,41.96
2018-10-02T23:44:03.115Z,41.62
2018-10-02T23:46:29.064Z,41.10
2018-10-02T23:48:55.046Z,42.16
2018-10-02T23:51:21.024Z,41.96
2018-10-02T23:53:46.993Z,41.82
2018-10-02T23:56:12.987Z,42.02
2018-10-02T23:58:38.980Z,41.80
